createdAt,value
2023-05-03T00:00:55.144Z,96764.16
2023-05-03T00:01:58.584Z,96758.00
2023-05-03T00:03:23.104Z,96757.44
2023-05-03T00:04:34.635Z,96759.56
2023-05-03T00:05:37.703Z,96759.31
2023-05-03T00:06:41.344Z,96752.59
2023-05-03T00:07:45.774Z,96756.88
2023-05-03T00:08:48.688Z,96767.59
2023-05-03T00:09:52.874Z,96757.69
2023-05-03T00:11:00.273Z,96759.03
2023-05-03T00:12:05.149Z,96757.41
2023-05-03T00:13:08.877Z,96757.41
2023-05-03T00:14:12.609Z,96763.81
2023-05-03T00:15:15.101Z,96759.28
2023-05-03T00:16:18.460Z,96758.72
2023-05-03T00:17:20.907Z,96766.47
2023-05-03T00:18:24.256Z,96753.38
2023-05-03T00:19:31.871Z,96753.38
2023-05-03T00:20:35.322Z,96760.59
2023-05-03T00:21:37.684Z,96759.53
2023-05-03T00:22:41.164Z,96764.09
2023-05-03T00:23:43.670Z,96759.53
2023-05-03T00:24:46.969Z,96761.13
2023-05-03T00:25:53.005Z,96756.59
2023-05-03T00:26:56.722Z,96766.47
2023-05-03T00:27:59.030Z,96759.53
2023-05-03T00:29:03.698Z,96756.88
2023-05-03T00:30:07.161Z,96756.31
2023-05-03T00:31:11.034Z,96761.94
2023-05-03T00:32:13.718Z,96762.16
2023-05-03T00:33:17.711Z,96759.50
2023-05-03T00:34:20.043Z,96755.19
2023-05-03T00:35:23.922Z,96754.66
2023-05-03T00:36:28.218Z,96754.66
2023-05-03T00:37:33.063Z,96756.53
2023-05-03T00:38:35.488Z,96755.72
2023-05-03T00:39:38.882Z,96754.13
2023-05-03T00:40:41.379Z,96747.97
2023-05-03T00:41:44.730Z,96752.50
2023-05-03T00:42:47.506Z,96747.66
2023-05-03T00:43:51.074Z,96750.88
2023-05-03T00:44:56.120Z,96753.00
2023-05-03T00:46:12.245Z,96743.38
2023-05-03T00:47:19.217Z,96751.91
2023-05-03T00:48:22.395Z,96751.91
2023-05-03T00:49:26.875Z,96745.75
2023-05-03T00:50:30.061Z,96751.09
2023-05-03T00:51:33.893Z,96749.25
2023-05-03T00:52:36.341Z,96748.44
2023-05-03T00:53:40.840Z,96751.91
2023-05-03T00:54:43.311Z,96756.44
2023-05-03T00:55:47.003Z,96751.09
2023-05-03T00:56:52.195Z,96758.06
2023-05-03T00:57:56.084Z,96757.78
2023-05-03T00:58:58.750Z,96760.97
2023-05-03T01:00:04.208Z,96755.63
2023-05-03T01:01:12.200Z,96764.75
2023-05-03T01:02:14.530Z,96763.66
2023-05-03T01:03:18.576Z,96760.97
2023-05-03T01:04:23.539Z,96755.63
2023-05-03T01:05:29.999Z,96757.25
2023-05-03T01:06:40.472Z,96766.34
2023-05-03T01:07:54.865Z,96758.88
2023-05-03T01:09:02.498Z,96767.16
2023-05-03T01:10:19.162Z,96770.63
2023-05-03T01:11:27.078Z,96756.44
2023-05-03T01:12:43.398Z,96757.25
2023-05-03T01:13:55.269Z,96760.97
2023-05-03T01:15:08.608Z,96755.63
2023-05-03T01:16:19.143Z,96754.59
2023-05-03T01:17:29.252Z,96769.56
2023-05-03T01:18:38.036Z,96764.47
2023-05-03T01:19:45.816Z,96763.41
2023-05-03T01:20:49.748Z,96755.94
2023-05-03T01:22:00.909Z,96762.09
2023-05-03T01:23:11.247Z,96760.50
2023-05-03T01:24:23.196Z,96753.53
2023-05-03T01:25:27.107Z,96757.00
2023-05-03T01:26:31.015Z,96758.06
2023-05-03T01:27:33.496Z,96757.00
2023-05-03T01:28:36.760Z,96761.84
2023-05-03T01:29:39.475Z,96765.34
2023-05-03T01:30:43.836Z,96759.19
2023-05-03T01:31:52.849Z,96760.00
2023-05-03T01:33:04.103Z,96770.69
2023-05-03T01:34:18.542Z,96763.72
2023-05-03T01:35:30.700Z,96756.75
2023-05-03T01:36:37.166Z,96762.59
2023-05-03T01:37:41.485Z,96762.59
2023-05-03T01:38:44.372Z,96762.88
2023-05-03T01:39:55.742Z,96755.63
2023-05-03T01:41:02.845Z,96759.91
2023-05-03T01:42:07.246Z,96755.06
2023-05-03T01:43:12.418Z,96767.88
2023-05-03T01:44:17.139Z,96770.00
2023-05-03T01:45:20.226Z,96769.44
2023-05-03T01:46:23.829Z,96764.38
2023-05-03T01:47:26.958Z,96771.34
2023-05-03T01:48:30.365Z,96776.69
2023-05-03T01:49:33.299Z,96769.44
2023-05-03T01:50:36.938Z,96773.72
2023-05-03T01:51:39.364Z,96774.53
2023-05-03T01:52:42.690Z,96772.13
2023-05-03T01:53:45.075Z,96767.56
2023-05-03T01:54:48.794Z,96772.91
2023-05-03T01:55:51.878Z,96773.72
2023-05-03T01:56:56.835Z,96770.00
2023-05-03T01:57:59.191Z,96779.06
2023-05-03T01:59:02.524Z,96780.69
2023-05-03T02:00:06.331Z,96770.81
2023-05-03T02:01:11.618Z,96775.34
2023-05-03T02:02:14.016Z,96779.06
2023-05-03T02:03:17.360Z,96776.16
2023-05-03T02:04:19.800Z,96771.63
2023-05-03T02:05:24.020Z,96779.88
2023-05-03T02:06:26.657Z,96786.06
2023-05-03T02:07:30.284Z,96782.31
2023-05-03T02:08:33.674Z,96778.56
2023-05-03T02:09:36.008Z,96781.25
2023-05-03T02:10:39.270Z,96783.09
2023-05-03T02:11:41.683Z,96783.09
2023-05-03T02:12:46.550Z,96778.56
2023-05-03T02:13:50.487Z,96783.09
2023-05-03T02:14:53.794Z,96774.31
2023-05-03T02:15:56.175Z,96775.34
2023-05-03T02:17:00.557Z,96780.69
2023-05-03T02:18:04.061Z,96776.69
2023-05-03T02:19:08.538Z,96777.97
2023-05-03T02:20:11.625Z,96773.91
2023-05-03T02:21:15.518Z,96773.09
2023-05-03T02:22:18.144Z,96772.56
2023-05-03T02:23:21.853Z,96775.22
2023-05-03T02:24:24.314Z,96754.38
2023-05-03T02:25:27.797Z,96767.16
2023-05-03T02:26:30.682Z,96765.56
2023-05-03T02:27:33.997Z,96766.06
2023-05-03T02:28:37.799Z,96770.34
2023-05-03T02:29:41.270Z,96770.34
2023-05-03T02:30:43.914Z,96761.78
2023-05-03T02:31:47.317Z,96762.84
2023-05-03T02:32:49.701Z,96772.72
2023-05-03T02:33:53.032Z,96758.00
2023-05-03T02:34:55.577Z,96767.63
2023-05-03T02:35:58.877Z,96755.91
2023-05-03T02:37:01.709Z,96763.34
2023-05-03T02:38:04.985Z,96761.75
2023-05-03T02:39:07.419Z,96767.09
2023-05-03T02:40:11.135Z,96764.66
2023-05-03T02:41:13.795Z,96766.53
2023-05-03T02:42:17.441Z,96765.47
2023-05-03T02:43:19.718Z,96765.47
2023-05-03T02:44:25.431Z,96762.00
2023-05-03T02:45:27.872Z,96764.66
2023-05-03T02:46:31.214Z,96763.34
2023-05-03T02:47:34.309Z,96761.75
2023-05-03T02:48:38.034Z,96763.34
2023-05-03T02:49:40.460Z,96765.47
2023-05-03T02:50:43.945Z,96758.50
2023-05-03T02:51:46.786Z,96751.56
2023-05-03T02:52:50.051Z,96760.38
2023-05-03T02:53:52.443Z,96752.06
2023-05-03T02:54:56.453Z,96751.81
2023-05-03T02:55:58.854Z,96741.38
2023-05-03T02:57:03.385Z,96758.22
2023-05-03T02:58:05.976Z,96750.47
2023-05-03T02:59:09.467Z,96754.19
2023-05-03T03:00:21.181Z,96746.72
2023-05-03T03:01:33.046Z,96747.78
2023-05-03T03:02:44.080Z,96744.53
2023-05-03T03:03:51.944Z,96747.22
2023-05-03T03:05:03.562Z,96740.53
2023-05-03T03:06:10.638Z,96759.72
2023-05-03T03:07:17.641Z,96751.72
2023-05-03T03:08:29.190Z,96751.72
2023-05-03T03:09:41.292Z,96769.59
2023-05-03T03:10:45.576Z,96758.91
2023-05-03T03:11:52.027Z,96772.28
2023-05-03T03:12:55.808Z,96772.28
2023-05-03T03:13:58.664Z,96771.78
2023-05-03T03:15:02.030Z,96766.69
2023-05-03T03:16:06.326Z,96769.91
2023-05-03T03:17:10.198Z,96775.00
2023-05-03T03:18:12.670Z,96771.53
2023-05-03T03:19:16.176Z,96772.34
2023-05-03T03:20:19.939Z,96772.59
2023-05-03T03:21:22.368Z,96775.00
2023-05-03T03:22:26.585Z,96765.38
2023-05-03T03:23:29.026Z,96772.34
2023-05-03T03:24:33.069Z,96783.03
2023-05-03T03:25:35.433Z,96783.84
2023-05-03T03:26:38.755Z,96782.22
2023-05-03T03:27:41.983Z,96778.72
2023-05-03T03:28:45.692Z,96785.13
2023-05-03T03:29:48.046Z,96780.28
2023-05-03T03:30:51.388Z,96776.81
2023-05-03T03:31:55.171Z,96782.97
2023-05-03T03:32:58.619Z,96782.47
2023-05-03T03:34:01.293Z,96779.78
2023-05-03T03:35:05.314Z,96778.19
2023-05-03T03:36:10.651Z,96778.19
2023-05-03T03:37:13.121Z,96787.25
2023-05-03T03:38:16.366Z,96782.97
2023-05-03T03:39:18.816Z,96781.91
2023-05-03T03:40:22.478Z,96793.91
2023-05-03T03:41:24.989Z,96776.81
2023-05-03T03:42:28.452Z,96790.16
2023-05-03T03:43:30.834Z,96803.78
2023-05-03T03:44:34.399Z,96798.44
2023-05-03T03:45:36.853Z,96804.59
2023-05-03T03:46:40.108Z,96799.25
2023-05-03T03:47:44.152Z,96799.25
2023-05-03T03:48:47.508Z,96795.78
2023-05-03T03:49:50.287Z,96796.81
2023-05-03T03:50:53.788Z,96803.78
2023-05-03T03:51:56.645Z,96796.81
2023-05-03T03:52:59.906Z,96800.53
2023-05-03T03:54:02.249Z,96812.03
2023-05-03T03:55:06.424Z,96805.09
2023-05-03T03:56:09.022Z,96809.63
2023-05-03T03:57:12.484Z,96796.78
2023-05-03T03:58:15.078Z,96803.50
2023-05-03T03:59:18.373Z,96808.03
2023-05-03T04:00:20.742Z,96801.34
2023-05-03T04:01:24.816Z,96804.31
2023-05-03T04:02:28.437Z,96809.06
2023-05-03T04:03:33.551Z,96810.16
2023-05-03T04:04:36.414Z,96810.16
2023-05-03T04:05:40.277Z,96797.28
2023-05-03T04:06:43.785Z,96808.53
2023-05-03T04:07:47.520Z,96818.41
2023-05-03T04:08:49.837Z,96816.78
2023-05-03T04:09:53.271Z,96816.78
2023-05-03T04:10:55.852Z,96830.44
2023-05-03T04:11:59.188Z,96821.38
2023-05-03T04:13:01.707Z,96824.59
2023-05-03T04:14:05.079Z,96827.25
2023-05-03T04:15:08.885Z,96821.91
2023-05-03T04:16:12.284Z,96818.19
2023-05-03T04:17:14.750Z,96828.88
2023-05-03T04:18:18.160Z,96830.19
2023-05-03T04:19:25.328Z,96820.31
2023-05-03T04:20:28.156Z,96828.56
2023-05-03T04:21:31.563Z,96826.19
2023-05-03T04:22:34.209Z,96839.53
2023-05-03T04:23:38.351Z,96831.53
2023-05-03T04:24:41.096Z,96835.00
2023-05-03T04:25:46.962Z,96824.56
2023-05-03T04:26:51.878Z,96839.25
2023-05-03T04:27:55.755Z,96829.91
2023-05-03T04:28:58.305Z,96834.44
2023-05-03T04:30:01.877Z,96837.66
2023-05-03T04:31:04.766Z,96828.84
2023-05-03T04:32:08.922Z,96829.66
2023-05-03T04:33:11.762Z,96837.41
2023-05-03T04:34:16.244Z,96832.06
2023-05-03T04:35:21.333Z,96825.66
2023-05-03T04:36:25.971Z,96837.41
2023-05-03T04:37:29.380Z,96837.16
2023-05-03T04:38:31.810Z,96832.59
2023-05-03T04:39:35.060Z,96833.69
2023-05-03T04:40:38.734Z,96839.56
2023-05-03T04:41:42.667Z,96837.94
2023-05-03T04:42:44.990Z,96840.38
2023-05-03T04:43:48.323Z,96835.84
2023-05-03T04:44:50.702Z,96832.91
2023-05-03T04:45:54.480Z,96845.22
2023-05-03T04:46:57.085Z,96851.38
2023-05-03T04:48:00.576Z,96849.75
2023-05-03T04:49:03.059Z,96854.59
2023-05-03T04:50:08.042Z,96847.41
2023-05-03T04:51:12.201Z,96851.94
2023-05-03T04:52:15.822Z,96850.06
2023-05-03T04:53:18.204Z,96853.31
2023-05-03T04:54:21.867Z,96856.22
2023-05-03T04:55:24.283Z,96851.69
2023-05-03T04:56:27.894Z,96849.25
2023-05-03T04:57:32.264Z,96865.84
2023-05-03T04:58:37.093Z,96858.66
2023-05-03T04:59:39.498Z,96863.19
2023-05-03T05:00:43.430Z,96860.25
2023-05-03T05:01:45.875Z,96865.91
2023-05-03T05:02:49.259Z,96870.19
2023-05-03T05:03:52.272Z,96870.75
2023-05-03T05:04:55.842Z,96880.94
2023-05-03T05:05:58.213Z,96873.47
2023-05-03T05:07:02.890Z,96876.94
2023-05-03T05:08:05.543Z,96885.25
2023-05-03T05:09:21.142Z,96887.38
2023-05-03T05:10:23.525Z,96893.28
2023-05-03T05:11:27.439Z,96890.59
2023-05-03T05:12:30.012Z,96886.88
2023-05-03T05:13:33.352Z,96886.88
2023-05-03T05:14:35.838Z,96894.66
2023-05-03T05:15:40.585Z,96902.69
2023-05-03T05:16:42.979Z,96902.69
2023-05-03T05:17:46.483Z,96904.53
2023-05-03T05:18:48.828Z,96900.78
2023-05-03T05:19:52.201Z,96906.94
2023-05-03T05:20:55.066Z,96913.94
2023-05-03T05:21:58.500Z,96916.34
2023-05-03T05:23:02.172Z,96911.00
2023-05-03T05:24:05.905Z,96913.69
2023-05-03T05:25:10.232Z,96917.13
2023-05-03T05:26:12.893Z,96903.22
2023-05-03T05:27:16.849Z,96917.13
2023-05-03T05:28:19.479Z,96916.34
2023-05-03T05:29:22.866Z,96915.56
2023-05-03T05:30:25.824Z,96925.97
2023-05-03T05:31:29.363Z,96914.47
2023-05-03T05:32:31.979Z,96919.56
2023-05-03T05:33:35.422Z,96923.88
2023-05-03T05:34:44.981Z,96924.41
2023-05-03T05:35:49.556Z,96929.78
2023-05-03T05:36:53.226Z,96929.78
2023-05-03T05:37:56.231Z,96930.56
2023-05-03T05:39:01.025Z,96938.38
2023-05-03T05:40:05.114Z,96931.16
2023-05-03T05:41:08.816Z,96939.19
2023-05-03T05:42:11.212Z,96944.53
2023-05-03T05:43:14.755Z,96936.25
2023-05-03T05:44:17.132Z,96932.50
2023-05-03T05:45:20.669Z,96935.75
2023-05-03T05:46:24.139Z,96939.47
2023-05-03T05:47:27.578Z,96948.09
2023-05-03T05:48:30.774Z,96935.25
2023-05-03T05:49:34.041Z,96940.59
2023-05-03T05:50:39.187Z,96945.44
2023-05-03T05:51:43.373Z,96939.06
2023-05-03T05:52:45.947Z,96951.91
2023-05-03T05:53:49.508Z,96946.56
2023-05-03T05:54:54.229Z,96945.25
2023-05-03T05:55:58.738Z,96950.09
2023-05-03T05:57:01.637Z,96947.69
2023-05-03T05:58:05.068Z,96958.94
2023-05-03T05:59:07.639Z,96953.59
2023-05-03T06:00:14.847Z,96949.03
2023-05-03T06:01:19.921Z,96958.94
2023-05-03T06:02:25.018Z,96961.09
2023-05-03T06:03:27.904Z,96958.97
2023-05-03T06:04:31.235Z,96954.75
2023-05-03T06:05:34.777Z,96963.34
2023-05-03T06:06:37.261Z,96966.56
2023-05-03T06:07:41.025Z,96973.53
2023-05-03T06:08:44.823Z,96968.72
2023-05-03T06:09:47.198Z,96969.25
2023-05-03T06:10:53.057Z,96976.78
2023-05-03T06:11:55.604Z,96974.69
2023-05-03T06:12:58.897Z,96973.63
2023-05-03T06:14:03.638Z,96982.19
2023-05-03T06:15:08.593Z,96973.13
2023-05-03T06:16:12.657Z,96976.34
2023-05-03T06:17:15.583Z,96981.44
2023-05-03T06:18:19.000Z,96986.53
2023-05-03T06:19:22.785Z,96982.00
2023-05-03T06:20:25.415Z,96984.41
2023-05-03T06:21:30.249Z,96981.19
2023-05-03T06:22:32.680Z,96984.41
2023-05-03T06:23:37.791Z,96988.16
2023-05-03T06:24:40.181Z,96994.31
2023-05-03T06:25:43.548Z,96989.75
2023-05-03T06:26:47.795Z,96994.63
2023-05-03T06:27:51.257Z,96991.94
2023-05-03T06:28:53.682Z,96993.31
2023-05-03T06:29:56.940Z,96993.63
2023-05-03T06:31:00.354Z,97000.56
2023-05-03T06:32:03.065Z,96996.31
2023-05-03T06:33:07.081Z,96997.69
2023-05-03T06:34:10.700Z,96996.38
2023-05-03T06:35:14.384Z,96998.56
2023-05-03T06:36:17.731Z,96997.47
2023-05-03T06:37:20.498Z,97002.31
2023-05-03T06:38:24.180Z,97000.22
2023-05-03T06:39:28.414Z,97007.41
2023-05-03T06:40:30.911Z,97000.22
2023-05-03T06:41:34.223Z,97005.56
2023-05-03T06:42:39.480Z,97007.97
2023-05-03T06:43:42.808Z,97006.91
2023-05-03T06:44:45.616Z,97006.41
2023-05-03T06:45:48.878Z,97011.25
2023-05-03T06:46:52.681Z,97007.00
2023-05-03T06:47:55.267Z,97000.31
2023-05-03T06:48:58.679Z,97008.44
2023-05-03T06:50:01.315Z,96998.81
2023-05-03T06:51:05.260Z,97001.53
2023-05-03T06:52:08.839Z,97012.03
2023-05-03T06:53:14.311Z,96998.38
2023-05-03T06:54:17.723Z,97006.72
2023-05-03T06:55:21.070Z,97008.09
2023-05-03T06:56:25.111Z,97010.25
2023-05-03T06:57:28.809Z,97000.06
2023-05-03T06:58:33.742Z,96999.56
2023-05-03T06:59:36.251Z,97003.03
2023-05-03T07:00:40.847Z,97015.13
2023-05-03T07:01:46.335Z,97011.09
2023-05-03T07:02:48.965Z,97007.91
2023-05-03T07:03:52.420Z,97002.84
2023-05-03T07:04:54.876Z,97015.47
2023-05-03T07:05:58.214Z,97005.88
2023-05-03T07:07:01.615Z,97011.25
2023-05-03T07:08:05.331Z,97015.84
2023-05-03T07:09:08.739Z,97009.44
2023-05-03T07:10:12.445Z,97009.72
2023-05-03T07:11:15.092Z,97003.31
2023-05-03T07:12:18.439Z,97002.78
2023-05-03T07:13:20.800Z,97011.66
2023-05-03T07:14:27.430Z,97004.22
2023-05-03T07:15:30.079Z,97009.09
2023-05-03T07:16:34.026Z,97009.91
2023-05-03T07:17:36.477Z,97012.34
2023-05-03T07:18:39.866Z,97014.78
2023-05-03T07:19:42.937Z,97013.44
2023-05-03T07:20:46.572Z,97016.16
2023-05-03T07:21:49.148Z,97022.34
2023-05-03T07:22:52.470Z,97017.25
2023-05-03T07:23:54.891Z,97017.53
2023-05-03T07:24:59.838Z,97018.88
2023-05-03T07:26:02.525Z,97027.22
2023-05-03T07:27:05.935Z,97028.56
2023-05-03T07:28:09.386Z,97030.41
2023-05-03T07:29:11.968Z,97031.50
2023-05-03T07:30:16.910Z,97032.84
2023-05-03T07:31:19.579Z,97038.78
2023-05-03T07:32:23.155Z,97030.19
2023-05-03T07:33:29.522Z,97037.72
2023-05-03T07:34:32.921Z,97033.97
2023-05-03T07:35:36.389Z,97032.34
2023-05-03T07:36:40.382Z,97035.56
2023-05-03T07:37:43.726Z,97037.97
2023-05-03T07:38:46.610Z,97034.47
2023-05-03T07:39:50.359Z,97039.56
2023-05-03T07:40:53.695Z,97041.41
2023-05-03T07:41:57.287Z,97033.34
2023-05-03T07:43:00.780Z,97039.25
2023-05-03T07:44:07.867Z,97038.16
2023-05-03T07:45:11.935Z,97045.69
2023-05-03T07:46:16.735Z,97044.88
2023-05-03T07:47:20.086Z,97046.22
2023-05-03T07:48:23.436Z,97037.06
2023-05-03T07:49:26.719Z,97038.97
2023-05-03T07:50:29.533Z,97037.06
2023-05-03T07:51:37.300Z,97034.38
2023-05-03T07:52:42.454Z,97035.19
2023-05-03T07:53:45.811Z,97039.22
2023-05-03T07:54:48.150Z,97040.59
2023-05-03T07:55:55.894Z,97039.25
2023-05-03T07:56:59.685Z,97040.06
2023-05-03T07:58:02.108Z,97034.69
2023-05-03T07:59:09.880Z,97043.28
2023-05-03T08:00:14.951Z,97044.38
2023-05-03T08:01:21.789Z,97044.66
2023-05-03T08:02:25.622Z,97043.84
2023-05-03T08:03:28.177Z,97053.56
2023-05-03T08:04:31.840Z,97049.81
2023-05-03T08:05:36.677Z,97055.72
2023-05-03T08:06:50.194Z,97060.84
2023-05-03T08:07:53.941Z,97054.47
2023-05-03T08:08:56.321Z,97051.50
2023-05-03T08:09:59.951Z,97052.84
2023-05-03T08:11:05.831Z,97061.44
2023-05-03T08:12:19.189Z,97056.88
2023-05-03T08:13:22.841Z,97058.22
2023-05-03T08:14:28.443Z,97065.75
2023-05-03T08:15:31.899Z,97068.47
2023-05-03T08:16:35.686Z,97066.31
2023-05-03T08:17:43.201Z,97065.75
2023-05-03T08:18:47.211Z,97064.13
2023-05-03T08:19:50.171Z,97059.84
2023-05-03T08:20:53.592Z,97066.84
2023-05-03T08:21:56.028Z,97066.84
2023-05-03T08:22:59.432Z,97072.75
2023-05-03T08:24:15.920Z,97072.22
2023-05-03T08:25:19.030Z,97077.84
2023-05-03T08:26:24.333Z,97077.81
2023-05-03T08:27:28.651Z,97072.69
2023-05-03T08:28:32.269Z,97078.59
2023-05-03T08:29:37.592Z,97082.88
2023-05-03T08:30:51.774Z,97088.22
2023-05-03T08:32:07.885Z,97081.78
2023-05-03T08:33:11.348Z,97083.38
2023-05-03T08:34:14.815Z,97082.31
2023-05-03T08:35:18.527Z,97086.59
2023-05-03T08:36:21.861Z,97091.13
2023-05-03T08:37:24.428Z,97081.22
2023-05-03T08:38:30.423Z,97088.69
2023-05-03T08:39:43.753Z,97088.97
2023-05-03T08:40:49.709Z,97085.53
2023-05-03T08:41:53.220Z,97088.75
2023-05-03T08:43:00.780Z,97088.22
2023-05-03T08:44:05.930Z,97081.84
2023-05-03T08:45:12.507Z,97089.38
2023-05-03T08:46:16.404Z,97089.41
2023-05-03T08:47:22.056Z,97085.09
2023-05-03T08:48:25.553Z,97094.50
2023-05-03T08:49:30.743Z,97093.69
2023-05-03T08:50:45.195Z,97095.59
2023-05-03T08:51:49.819Z,97098.53
2023-05-03T08:52:53.341Z,97086.16
2023-05-03T08:53:57.318Z,97094.75
2023-05-03T08:55:00.014Z,97095.31
2023-05-03T08:56:08.075Z,97089.16
2023-05-03T08:57:13.934Z,97091.53
2023-05-03T08:58:17.829Z,97095.81
2023-05-03T08:59:20.171Z,97092.53
2023-05-03T09:00:30.392Z,97101.13
2023-05-03T09:01:35.584Z,97090.59
2023-05-03T09:02:40.975Z,97091.91
2023-05-03T09:03:52.236Z,97090.13
2023-05-03T09:04:56.837Z,97093.78
2023-05-03T09:06:02.247Z,97093.16
2023-05-03T09:07:09.505Z,97094.34
2023-05-03T09:08:14.727Z,97093.88
2023-05-03T09:09:33.086Z,97106.63
2023-05-03T09:10:39.565Z,97104.91
2023-05-03T09:11:42.878Z,97105.47
2023-05-03T09:12:46.047Z,97100.72
2023-05-03T09:14:10.666Z,97104.06
2023-05-03T09:15:22.331Z,97110.06
2023-05-03T09:16:27.534Z,97108.00
2023-05-03T09:17:29.994Z,97109.19
2023-05-03T09:18:34.654Z,97109.66
2023-05-03T09:19:50.722Z,97105.31
2023-05-03T09:20:56.302Z,97109.06
2023-05-03T09:22:07.675Z,97108.41
2023-05-03T09:23:11.647Z,97104.31
2023-05-03T09:25:18.474Z,97102.69
2023-05-03T09:26:34.587Z,97110.03
2023-05-03T09:27:38.353Z,97106.97
2023-05-03T09:28:43.658Z,97109.06
2023-05-03T09:29:46.246Z,97109.34
2023-05-03T09:30:51.452Z,97104.72
2023-05-03T09:32:00.926Z,97104.16
2023-05-03T09:33:20.471Z,97103.38
2023-05-03T09:34:25.231Z,97102.59
2023-05-03T09:35:28.990Z,97103.59
2023-05-03T09:36:47.423Z,97098.19
2023-05-03T09:37:49.960Z,97099.03
2023-05-03T09:38:53.936Z,97090.78
2023-05-03T09:40:08.308Z,97097.22
2023-05-03T09:41:13.334Z,97091.06
2023-05-03T09:42:18.218Z,97101.16
2023-05-03T09:43:20.596Z,97098.31
2023-05-03T09:44:51.708Z,97104.69
2023-05-03T09:46:09.891Z,97098.19
2023-05-03T09:47:13.607Z,97098.34
2023-05-03T09:48:16.956Z,97106.09
2023-05-03T09:49:20.358Z,97103.91
2023-05-03T09:50:24.625Z,97109.00
2023-05-03T09:51:29.639Z,97100.91
2023-05-03T09:52:33.076Z,97104.53
2023-05-03T09:53:36.748Z,97095.28
2023-05-03T09:54:41.025Z,97100.28
2023-05-03T09:55:43.367Z,97097.66
2023-05-03T09:56:47.674Z,97095.13
2023-05-03T09:57:51.000Z,97092.13
2023-05-03T09:58:55.152Z,97100.16
2023-05-03T09:59:58.649Z,97102.94
2023-05-03T10:01:01.987Z,97105.59
2023-05-03T10:02:11.776Z,97094.56
2023-05-03T10:03:24.760Z,97098.78
2023-05-03T10:04:29.751Z,97093.97
2023-05-03T10:05:36.071Z,97093.38
2023-05-03T10:06:42.241Z,97101.44
2023-05-03T10:07:45.518Z,97092.50
2023-05-03T10:08:54.491Z,97096.31
2023-05-03T10:09:58.881Z,97095.81
2023-05-03T10:11:04.029Z,97100.19
2023-05-03T10:12:11.924Z,97105.16
2023-05-03T10:13:16.213Z,97103.34
2023-05-03T10:14:20.121Z,97105.88
2023-05-03T10:15:25.647Z,97111.59
2023-05-03T10:16:32.745Z,97107.88
2023-05-03T10:17:46.929Z,97112.84
2023-05-03T10:18:55.652Z,97119.97
2023-05-03T10:20:07.000Z,97117.06
2023-05-03T10:21:16.824Z,97109.56
2023-05-03T10:22:20.050Z,97109.09
2023-05-03T10:23:22.424Z,97108.28
2023-05-03T10:24:25.892Z,97111.06
2023-05-03T10:25:28.247Z,97120.81
2023-05-03T10:26:31.630Z,97112.25
2023-05-03T10:27:43.995Z,97118.06
2023-05-03T10:28:47.291Z,97128.13
2023-05-03T10:29:51.627Z,97120.09
2023-05-03T10:30:55.057Z,97119.63
2023-05-03T10:31:57.452Z,97122.91
2023-05-03T10:33:01.681Z,97131.63
2023-05-03T10:34:21.793Z,97120.91
2023-05-03T10:35:28.627Z,97120.13
2023-05-03T10:36:48.497Z,97117.91
2023-05-03T10:37:53.447Z,97130.06
2023-05-03T10:38:58.942Z,97119.78
2023-05-03T10:40:10.382Z,97118.16
2023-05-03T10:41:13.704Z,97110.63
2023-05-03T10:42:16.061Z,97111.75
2023-05-03T10:43:44.788Z,97102.03
2023-05-03T10:44:53.331Z,97107.38
2023-05-03T10:45:57.563Z,97098.94
2023-05-03T10:47:11.719Z,97097.28
2023-05-03T10:48:22.803Z,97116.28
2023-05-03T10:49:27.344Z,97103.78
2023-05-03T10:50:30.384Z,97104.25
2023-05-03T10:51:37.415Z,97105.53
2023-05-03T10:52:47.594Z,97106.81
2023-05-03T10:53:51.312Z,97100.84
2023-05-03T10:54:54.653Z,97105.09
2023-05-03T10:56:06.026Z,97104.50
2023-05-03T10:57:09.851Z,97104.75
2023-05-03T10:58:15.009Z,97099.28
2023-05-03T10:59:18.942Z,97104.13
2023-05-03T11:00:29.079Z,97101.13
2023-05-03T11:01:35.685Z,97097.31
2023-05-03T11:02:44.308Z,97100.84
2023-05-03T11:03:51.959Z,97101.06
2023-05-03T11:05:01.926Z,97101.25
2023-05-03T11:06:05.914Z,97098.00
2023-05-03T11:07:11.027Z,97109.09
2023-05-03T11:08:17.139Z,97103.81
2023-05-03T11:09:20.861Z,97102.31
2023-05-03T11:10:25.392Z,97104.28
2023-05-03T11:11:28.990Z,97098.16
2023-05-03T11:12:32.341Z,97095.22
2023-05-03T11:13:34.731Z,97100.59
2023-05-03T11:14:39.872Z,97092.28
2023-05-03T11:15:43.033Z,97091.53
2023-05-03T11:16:50.754Z,97095.66
2023-05-03T11:17:53.406Z,97093.00
2023-05-03T11:18:57.062Z,97088.72
2023-05-03T11:20:00.776Z,97086.09
2023-05-03T11:21:03.603Z,97098.50
2023-05-03T11:22:07.302Z,97095.78
2023-05-03T11:23:12.366Z,97094.13
2023-05-03T11:24:15.714Z,97094.66
2023-05-03T11:25:18.701Z,97095.97
2023-05-03T11:26:26.465Z,97097.81
2023-05-03T11:27:30.049Z,97094.81
2023-05-03T11:28:32.598Z,97094.00
2023-05-03T11:29:36.630Z,97098.91
2023-05-03T11:30:39.015Z,97100.28
2023-05-03T11:31:44.127Z,97087.38
2023-05-03T11:32:48.604Z,97103.31
2023-05-03T11:33:52.075Z,97109.28
2023-05-03T11:34:56.347Z,97099.06
2023-05-03T11:35:59.698Z,97099.59
2023-05-03T11:37:04.296Z,97101.22
2023-05-03T11:38:07.575Z,97108.25
2023-05-03T11:39:13.154Z,97110.63
2023-05-03T11:40:17.162Z,97100.66
2023-05-03T11:41:20.608Z,97110.31
2023-05-03T11:42:25.970Z,97105.38
2023-05-03T11:43:29.513Z,97111.31
2023-05-03T11:44:33.539Z,97121.56
2023-05-03T11:45:42.417Z,97119.53
2023-05-03T11:46:47.068Z,97113.63
2023-05-03T11:47:55.085Z,97106.63
2023-05-03T11:48:58.993Z,97099.56
2023-05-03T11:50:02.396Z,97103.81
2023-05-03T11:51:11.423Z,97110.78
2023-05-03T11:52:15.388Z,97110.22
2023-05-03T11:53:19.841Z,97103.22
2023-05-03T11:54:27.487Z,97095.97
2023-05-03T11:55:31.320Z,97097.38
2023-05-03T11:56:35.608Z,97108.81
2023-05-03T11:57:39.920Z,97104.56
2023-05-03T11:58:56.155Z,97100.84
2023-05-03T12:00:13.282Z,97101.97
2023-05-03T12:01:17.620Z,97105.78
2023-05-03T12:02:21.065Z,97100.63
2023-05-03T12:03:30.727Z,97103.00
2023-05-03T12:04:36.632Z,97098.59
2023-05-03T12:05:39.809Z,97096.88
2023-05-03T12:06:49.092Z,97094.66
2023-05-03T12:07:58.009Z,97097.84
2023-05-03T12:09:04.414Z,97101.59
2023-05-03T12:11:25.028Z,97103.75
2023-05-03T12:12:32.821Z,97109.97
2023-05-03T12:13:40.691Z,97099.97
2023-05-03T12:14:59.615Z,97101.44
2023-05-03T12:17:11.587Z,97102.38
2023-05-03T12:18:14.664Z,97107.81
2023-05-03T12:19:27.166Z,97100.31
2023-05-03T12:21:54.116Z,97100.50
2023-05-03T12:23:04.664Z,97110.19
2023-05-03T12:24:10.851Z,97101.47
2023-05-03T12:25:15.779Z,97090.34
2023-05-03T12:26:20.233Z,97097.84
2023-05-03T12:27:24.051Z,97102.19
2023-05-03T12:28:27.591Z,97100.06
2023-05-03T12:29:34.692Z,97101.13
2023-05-03T12:30:40.651Z,97099.50
2023-05-03T12:31:47.041Z,97100.88
2023-05-03T12:32:51.672Z,97104.41
2023-05-03T12:34:19.887Z,97116.28
2023-05-03T12:35:21.150Z,97095.81
2023-05-03T12:36:26.235Z,97099.41
2023-05-03T12:37:33.146Z,97107.19
2023-05-03T12:38:37.811Z,97107.44
2023-05-03T12:39:45.788Z,97095.25
2023-05-03T12:40:53.283Z,97092.63
2023-05-03T12:42:07.097Z,97096.97
2023-05-03T12:43:10.804Z,97103.78
2023-05-03T12:44:16.842Z,97107.28
2023-05-03T12:45:21.292Z,97097.31
2023-05-03T12:47:30.865Z,97083.47
2023-05-03T12:48:34.642Z,97098.25
2023-05-03T12:49:38.989Z,97100.09